createdAt,value
2018-10-19T00:02:25.947Z,11.20
2018-10-19T00:07:29.016Z,11.10
2018-10-19T00:12:32.101Z,11.10
2018-10-19T00:17:35.250Z,11.00
2018-10-19T00:22:38.313Z,11.00
2018-10-19T00:27:41.384Z,10.90
2018-10-19T00:32:44.474Z,10.90
2018-10-19T00:37:47.573Z,10.90
2018-10-19T00:42:50.669Z,10.80
2018-10-19T00:47:53.815Z,10.80
2018-10-19T00:52:56.910Z,10.80
2018-10-19T00:57:59.988Z,10.70
2018-10-19T01:03:03.156Z,10.70
2018-10-19T01:08:06.821Z,10.60
2018-10-19T01:13:09.918Z,10.60
2018-10-19T01:18:13.021Z,10.50
2018-10-19T01:23:16.226Z,10.40
2018-10-19T01:28:19.251Z,10.40
2018-10-19T01:33:22.326Z,10.30
2018-10-19T01:38:25.391Z,10.20
2018-10-19T01:43:28.458Z,10.20
2018-10-19T01:48:31.570Z,10.10
2018-10-19T01:53:34.633Z,10.00
2018-10-19T01:58:37.725Z,9.90
2018-10-19T02:03:40.818Z,9.80
2018-10-19T02:08:43.914Z,9.70
2018-10-19T02:13:46.998Z,9.60
2018-10-19T02:18:50.214Z,9.50
2018-10-19T02:23:53.398Z,9.50
2018-10-19T02:28:56.576Z,9.40
2018-10-19T02:33:59.629Z,9.30
2018-10-19T02:39:03.190Z,9.20
2018-10-19T02:44:06.201Z,9.10
2018-10-19T02:49:09.362Z,9.10
2018-10-19T02:54:12.449Z,8.90
2018-10-19T02:59:15.684Z,8.80
2018-10-19T03:04:18.741Z,8.80
2018-10-19T03:09:21.828Z,8.60
2018-10-19T03:14:24.936Z,8.60
2018-10-19T03:19:28.038Z,8.50
2018-10-19T03:24:31.127Z,8.50
2018-10-19T03:29:34.242Z,8.50
2018-10-19T03:34:37.350Z,8.50
2018-10-19T03:39:40.438Z,8.50
2018-10-19T03:44:43.534Z,8.40
2018-10-19T03:49:46.632Z,8.40
2018-10-19T03:54:49.743Z,8.40
2018-10-19T03:59:52.960Z,8.30
2018-10-19T04:04:56.097Z,8.30
2018-10-19T04:09:59.150Z,8.20
2018-10-19T04:15:02.329Z,8.20
2018-10-19T04:20:05.751Z,8.10
2018-10-19T04:25:08.839Z,8.10
2018-10-19T04:30:11.929Z,8.10
2018-10-19T04:35:30.163Z,8.00
2018-10-19T04:40:39.765Z,8.00
2018-10-19T04:45:43.017Z,8.00
2018-10-19T04:50:46.236Z,7.90
2018-10-19T04:55:49.330Z,7.90
2018-10-19T05:00:52.413Z,7.90
2018-10-19T05:05:55.605Z,7.90
2018-10-19T05:10:58.711Z,7.90
2018-10-19T05:16:01.779Z,7.80
2018-10-19T05:21:04.885Z,7.80
2018-10-19T05:26:08.031Z,7.70
2018-10-19T05:31:11.097Z,7.60
2018-10-19T05:36:14.195Z,7.60
2018-10-19T05:41:17.447Z,7.50
2018-10-19T05:46:20.517Z,7.50
2018-10-19T05:51:23.603Z,7.40
2018-10-19T05:56:26.883Z,7.30
2018-10-19T06:01:36.714Z,7.30
2018-10-19T06:06:39.954Z,7.20
2018-10-19T06:11:43.100Z,7.20
2018-10-19T06:21:52.715Z,7.10
2018-10-19T06:26:55.802Z,7.00
2018-10-19T06:32:00.170Z,7.00
2018-10-19T06:37:03.314Z,7.00
2018-10-19T06:42:06.422Z,7.00
2018-10-19T06:47:09.564Z,7.00
2018-10-19T06:52:12.622Z,7.10
2018-10-19T06:57:15.808Z,7.00
2018-10-19T07:02:18.904Z,7.20
2018-10-19T07:07:28.363Z,7.20
2018-10-19T07:12:31.463Z,7.30
2018-10-19T07:17:34.553Z,7.30
2018-10-19T07:22:37.645Z,7.40
2018-10-19T07:27:40.724Z,7.60
2018-10-19T07:32:43.839Z,7.60
2018-10-19T07:37:46.929Z,7.80
2018-10-19T07:42:50.030Z,7.90
2018-10-19T07:48:05.504Z,8.00
2018-10-19T07:53:08.439Z,8.20
2018-10-19T07:58:11.530Z,8.40
2018-10-19T08:08:17.590Z,8.60
2018-10-19T08:13:20.734Z,9.10
2018-10-19T08:18:23.847Z,11.10
2018-10-19T08:23:26.962Z,12.40
2018-10-19T08:28:30.048Z,12.80
2018-10-19T08:33:33.149Z,13.40
2018-10-19T08:38:36.518Z,13.60
2018-10-19T08:43:39.641Z,13.30
2018-10-19T08:48:42.748Z,13.20
2018-10-19T08:53:45.923Z,13.30
2018-10-19T08:58:49.880Z,13.40
2018-10-19T09:03:52.989Z,13.60
2018-10-19T09:08:56.173Z,13.90
2018-10-19T09:13:59.231Z,14.30
2018-10-19T09:19:02.314Z,14.90
2018-10-19T09:24:16.809Z,15.10
2018-10-19T09:29:19.910Z,15.40
2018-10-19T09:34:23.017Z,16.00
2018-10-19T09:39:26.122Z,16.30
2018-10-19T09:44:29.210Z,16.30
2018-10-19T09:49:32.317Z,16.20
2018-10-19T09:54:35.425Z,15.90
2018-10-19T09:59:38.533Z,15.90
2018-10-19T10:04:41.639Z,16.00
2018-10-19T10:09:44.736Z,16.00
2018-10-19T10:14:47.910Z,16.10
2018-10-19T10:19:50.958Z,16.00
2018-10-19T10:24:54.105Z,16.20
2018-10-19T10:29:57.183Z,16.40
2018-10-19T10:35:00.288Z,16.30
2018-10-19T10:40:03.414Z,16.20
2018-10-19T10:45:06.616Z,16.20
2018-10-19T10:50:09.715Z,16.00
2018-10-19T10:55:12.832Z,16.00
2018-10-19T11:00:16.095Z,15.90
2018-10-19T11:05:19.193Z,15.90
2018-10-19T11:15:55.766Z,15.70
2018-10-19T11:20:58.816Z,15.60
2018-10-19T11:26:01.945Z,15.50
2018-10-19T11:31:05.373Z,15.50
2018-10-19T11:36:08.445Z,15.40
2018-10-19T11:41:11.534Z,15.30
2018-10-19T11:46:14.731Z,15.20
2018-10-19T11:51:17.771Z,15.20
2018-10-19T11:56:21.040Z,15.20
2018-10-19T12:01:24.133Z,15.20
2018-10-19T12:06:27.229Z,15.20
2018-10-19T12:11:30.325Z,15.10
2018-10-19T12:16:33.489Z,15.20
2018-10-19T12:21:43.036Z,15.20
2018-10-19T12:26:46.130Z,15.30
2018-10-19T12:31:49.260Z,15.50
2018-10-19T12:36:52.404Z,15.50
2018-10-19T12:41:55.498Z,15.50
2018-10-19T12:47:10.100Z,15.50
2018-10-19T12:52:13.211Z,15.50
2018-10-19T12:57:16.345Z,15.40
2018-10-19T13:02:19.433Z,15.40
2018-10-19T13:07:22.744Z,15.30
2018-10-19T13:12:25.847Z,15.20
2018-10-19T13:17:28.945Z,15.20
2018-10-19T13:22:32.046Z,15.40
2018-10-19T13:27:35.167Z,16.10
2018-10-19T13:32:38.287Z,16.20
2018-10-19T13:37:41.405Z,16.40
2018-10-19T13:42:44.509Z,16.30
2018-10-19T13:47:47.646Z,16.10
2018-10-19T13:52:50.744Z,15.90
2018-10-19T13:57:54.324Z,15.80
2018-10-19T14:02:58.266Z,15.70
2018-10-19T14:08:01.389Z,16.00
2018-10-19T14:13:04.502Z,16.30
2018-10-19T14:18:07.593Z,16.60
2018-10-19T14:23:10.860Z,16.70
2018-10-19T14:28:14.190Z,16.90
2018-10-19T14:33:17.429Z,17.00
2018-10-19T14:38:20.442Z,17.10
2018-10-19T14:43:23.664Z,17.10
2018-10-19T14:48:26.756Z,17.10
2018-10-19T14:53:29.866Z,17.00
2018-10-19T14:58:32.993Z,16.90
2018-10-19T15:03:36.089Z,16.70
2018-10-19T15:08:39.208Z,16.60
2018-10-19T15:13:42.355Z,16.40
2018-10-19T15:18:45.455Z,16.20
2018-10-19T15:23:48.553Z,16.10
2018-10-19T15:28:51.681Z,15.90
2018-10-19T15:33:54.773Z,15.80
2018-10-19T15:38:57.926Z,15.60
2018-10-19T15:44:01.009Z,15.40
2018-10-19T15:49:04.418Z,15.20
2018-10-19T15:54:07.539Z,15.00
2018-10-19T15:59:10.624Z,14.80
2018-10-19T16:04:13.738Z,14.60
2018-10-19T16:09:16.821Z,14.40
2018-10-19T16:14:19.938Z,14.20
2018-10-19T16:19:23.062Z,14.10
2018-10-19T16:24:26.172Z,13.90
2018-10-19T16:29:29.327Z,13.70
2018-10-19T16:34:32.474Z,13.50
2018-10-19T16:39:35.549Z,13.40
2018-10-19T16:44:38.647Z,13.20
2018-10-19T16:49:50.111Z,13.10
2018-10-19T16:54:53.216Z,12.90
2018-10-19T16:59:56.327Z,12.80
2018-10-19T17:04:59.482Z,12.60
2018-10-19T17:10:02.546Z,12.60
2018-10-19T17:15:05.838Z,12.50
2018-10-19T17:25:16.728Z,12.40
2018-10-19T17:30:19.993Z,12.10
2018-10-19T17:35:22.940Z,12.00
2018-10-19T17:40:26.060Z,11.90
2018-10-19T17:45:29.154Z,11.70
2018-10-19T17:50:32.285Z,11.60
2018-10-19T17:55:35.378Z,11.40
2018-10-19T18:00:38.502Z,11.30
2018-10-19T18:05:41.605Z,11.20
2018-10-19T18:15:47.657Z,11.10
2018-10-19T18:20:50.714Z,10.70
2018-10-19T18:25:53.857Z,10.60
2018-10-19T18:30:56.925Z,10.50
2018-10-19T18:36:03.892Z,10.30
2018-10-19T18:41:07.016Z,10.20
2018-10-19T18:46:10.124Z,10.10
2018-10-19T18:51:13.212Z,10.00
2018-10-19T18:56:16.378Z,9.90
2018-10-19T19:01:19.409Z,9.80
2018-10-19T19:06:22.602Z,9.70
2018-10-19T19:11:25.691Z,9.60
2018-10-19T19:16:29.809Z,9.50
2018-10-19T19:21:38.961Z,9.30
2018-10-19T19:26:42.366Z,9.20
2018-10-19T19:31:46.080Z,9.10
2018-10-19T19:36:49.713Z,9.10
2018-10-19T19:41:58.299Z,8.90
2018-10-19T19:47:01.912Z,8.80
2018-10-19T19:52:05.200Z,8.70
2018-10-19T19:57:08.513Z,8.60
2018-10-19T20:02:11.946Z,8.60
2018-10-19T20:07:15.106Z,8.50
2018-10-19T20:12:31.303Z,8.40
2018-10-19T20:17:34.486Z,8.30
2018-10-19T20:22:37.832Z,8.20
2018-10-19T20:27:41.417Z,8.20
2018-10-19T20:32:44.520Z,8.10
2018-10-19T20:37:47.641Z,8.00
2018-10-19T20:42:55.373Z,7.90
2018-10-19T20:47:58.529Z,7.80
2018-10-19T20:53:01.661Z,7.80
2018-10-19T20:58:04.755Z,7.70
2018-10-19T21:03:07.856Z,7.60
2018-10-19T21:08:10.997Z,7.60
2018-10-19T21:13:14.060Z,7.50
2018-10-19T21:18:17.143Z,7.40
2018-10-19T21:23:20.347Z,7.30
2018-10-19T21:28:23.436Z,7.20
2018-10-19T21:33:26.539Z,7.10
2018-10-19T21:38:29.683Z,7.00
2018-10-19T21:43:32.804Z,6.90
2018-10-19T21:48:35.930Z,6.90
2018-10-19T21:53:39.194Z,6.80
2018-10-19T21:58:42.282Z,6.70
2018-10-19T22:03:45.380Z,6.60
2018-10-19T22:08:48.478Z,6.50
2018-10-19T22:13:51.593Z,6.40
2018-10-19T22:18:54.700Z,6.40
2018-10-19T22:23:57.802Z,6.30
2018-10-19T22:29:00.963Z,6.30
2018-10-19T22:34:04.165Z,6.20
2018-10-19T22:39:07.868Z,6.20
2018-10-19T22:44:10.957Z,6.10
2018-10-19T22:49:14.354Z,6.10
2018-10-19T22:54:17.456Z,6.00
2018-10-19T22:59:20.557Z,6.00
2018-10-19T23:04:23.659Z,5.90
2018-10-19T23:15:09.039Z,5.80
2018-10-19T23:20:12.133Z,5.80
2018-10-19T23:25:15.285Z,5.80
2018-10-19T23:30:18.341Z,5.80
2018-10-19T23:35:21.464Z,5.70
2018-10-19T23:40:24.563Z,5.70
2018-10-19T23:45:27.664Z,5.70
2018-10-19T23:50:30.762Z,5.60
2018-10-19T23:55:33.894Z,5.60
